createdAt,value
2019-03-24T00:00:48.967Z,74.04
2019-03-24T00:01:49.103Z,74.04
2019-03-24T00:02:49.231Z,74.04
2019-03-24T00:03:49.348Z,74.24
2019-03-24T00:04:49.477Z,73.95
2019-03-24T00:05:49.595Z,73.95
2019-03-24T00:06:49.753Z,73.95
2019-03-24T00:07:49.859Z,73.95
2019-03-24T00:08:49.977Z,73.85
2019-03-24T00:09:50.135Z,74.14
2019-03-24T00:10:50.245Z,73.85
2019-03-24T00:11:50.368Z,74.04
2019-03-24T00:12:50.504Z,73.85
2019-03-24T00:13:50.622Z,73.66
2019-03-24T00:14:50.748Z,73.85
2019-03-24T00:15:50.889Z,73.95
2019-03-24T00:16:51.010Z,74.43
2019-03-24T00:17:51.141Z,74.04
2019-03-24T00:18:51.268Z,73.95
2019-03-24T00:19:51.396Z,73.85
2019-03-24T00:20:51.522Z,73.63
2019-03-24T00:21:51.646Z,72.77
2019-03-24T00:22:51.772Z,73.15
2019-03-24T00:23:51.900Z,73.06
2019-03-24T00:24:52.029Z,72.96
2019-03-24T00:25:52.164Z,72.67
2019-03-24T00:26:52.284Z,72.96
2019-03-24T00:27:52.415Z,73.72
2019-03-24T00:28:52.537Z,74.10
2019-03-24T00:29:52.662Z,73.91
2019-03-24T00:30:52.791Z,73.82
2019-03-24T00:31:52.921Z,73.82
2019-03-24T00:32:53.045Z,73.91
2019-03-24T00:33:53.169Z,74.48
2019-03-24T00:34:53.305Z,74.10
2019-03-24T00:35:53.411Z,74.29
2019-03-24T00:36:53.543Z,74.29
2019-03-24T00:37:53.665Z,74.39
2019-03-24T00:38:53.788Z,74.39
2019-03-24T00:39:53.927Z,74.10
2019-03-24T00:40:54.050Z,74.39
2019-03-24T00:41:54.185Z,74.58
2019-03-24T00:42:54.303Z,75.34
2019-03-24T00:43:54.431Z,75.05
2019-03-24T00:44:54.562Z,74.58
2019-03-24T00:45:54.686Z,74.48
2019-03-24T00:46:54.817Z,74.10
2019-03-24T00:47:54.934Z,74.48
2019-03-24T00:48:55.067Z,74.29
2019-03-24T00:49:55.199Z,74.87
2019-03-24T00:50:55.350Z,74.67
2019-03-24T00:51:55.449Z,75.15
2019-03-24T00:52:55.585Z,75.43
2019-03-24T00:53:55.718Z,75.62
2019-03-24T00:54:55.842Z,75.81
2019-03-24T00:55:55.970Z,75.34
2019-03-24T00:56:56.100Z,75.05
2019-03-24T00:57:56.227Z,75.15
2019-03-24T00:58:56.357Z,75.15
2019-03-24T00:59:56.489Z,75.34
2019-03-24T01:00:56.616Z,75.53
2019-03-24T01:01:56.745Z,75.43
2019-03-24T01:02:56.872Z,75.24
2019-03-24T01:03:56.972Z,75.15
2019-03-24T01:04:57.105Z,75.34
2019-03-24T01:05:57.231Z,75.24
2019-03-24T01:06:57.357Z,75.05
2019-03-24T01:07:57.485Z,74.67
2019-03-24T01:08:57.620Z,74.87
2019-03-24T01:09:57.748Z,74.20
2019-03-24T01:10:57.882Z,75.05
2019-03-24T01:11:58.004Z,74.77
2019-03-24T01:12:58.125Z,74.73
2019-03-24T01:13:58.256Z,74.63
2019-03-24T01:14:58.382Z,74.26
2019-03-24T01:15:58.515Z,73.97
2019-03-24T01:16:58.634Z,74.26
2019-03-24T01:17:58.765Z,73.97
2019-03-24T01:18:58.895Z,74.07
2019-03-24T01:19:59.022Z,74.26
2019-03-24T01:20:59.145Z,74.92
2019-03-24T01:21:59.270Z,74.63
2019-03-24T01:22:59.406Z,74.73
2019-03-24T01:23:59.526Z,74.54
2019-03-24T01:24:59.652Z,74.44
2019-03-24T01:25:59.820Z,74.16
2019-03-24T01:26:59.911Z,74.07
2019-03-24T01:28:00.036Z,74.44
2019-03-24T01:29:00.168Z,74.07
2019-03-24T01:30:00.344Z,74.44
2019-03-24T01:31:00.445Z,73.88
2019-03-24T01:32:00.567Z,73.97
2019-03-24T01:33:00.689Z,73.69
2019-03-24T01:34:00.866Z,74.26
2019-03-24T01:35:00.959Z,74.44
2019-03-24T01:36:01.089Z,74.54
2019-03-24T01:37:01.205Z,74.82
2019-03-24T01:38:01.330Z,74.92
2019-03-24T01:39:01.452Z,75.21
2019-03-24T01:40:01.579Z,75.30
2019-03-24T01:41:01.703Z,75.02
2019-03-24T01:42:01.854Z,75.59
2019-03-24T01:43:01.971Z,75.49
2019-03-24T01:44:02.113Z,75.30
2019-03-24T01:45:02.244Z,75.02
2019-03-24T01:46:02.377Z,75.49
2019-03-24T01:47:02.500Z,75.49
2019-03-24T01:48:02.632Z,75.40
2019-03-24T01:49:02.765Z,75.30
2019-03-24T01:50:02.889Z,75.68
2019-03-24T01:51:03.014Z,75.30
2019-03-24T01:52:03.202Z,75.49
2019-03-24T01:53:03.363Z,75.40
2019-03-24T01:54:03.435Z,75.40
2019-03-24T01:55:03.556Z,75.30
2019-03-24T01:56:03.686Z,75.30
2019-03-24T01:57:03.817Z,75.30
2019-03-24T01:58:03.941Z,75.68
2019-03-24T01:59:04.070Z,75.96
2019-03-24T02:00:04.215Z,75.87
2019-03-24T02:01:04.344Z,75.78
2019-03-24T02:02:04.462Z,75.96
2019-03-24T02:03:04.605Z,76.35
2019-03-24T02:04:04.754Z,76.25
2019-03-24T02:05:04.877Z,76.16
2019-03-24T02:06:05.005Z,76.16
2019-03-24T02:07:05.128Z,76.16
2019-03-24T02:08:05.265Z,75.96
2019-03-24T02:09:05.400Z,75.78
2019-03-24T02:10:05.522Z,75.59
2019-03-24T02:11:05.649Z,75.87
2019-03-24T02:12:05.790Z,76.16
2019-03-24T02:13:05.938Z,76.16
2019-03-24T02:14:06.066Z,75.78
2019-03-24T02:15:06.186Z,75.96
2019-03-24T02:16:09.638Z,76.25
2019-03-24T02:17:06.444Z,76.44
2019-03-24T02:18:06.563Z,76.92
2019-03-24T02:19:06.689Z,76.54
2019-03-24T02:20:06.827Z,76.35
2019-03-24T02:21:06.950Z,76.25
2019-03-24T02:22:07.079Z,76.35
2019-03-24T02:23:07.216Z,76.54
2019-03-24T02:24:07.357Z,76.82
2019-03-24T02:25:07.481Z,76.44
2019-03-24T02:26:07.597Z,76.73
2019-03-24T02:27:07.730Z,76.73
2019-03-24T02:28:07.863Z,77.30
2019-03-24T02:29:07.981Z,76.92
2019-03-24T02:30:08.117Z,76.92
2019-03-24T02:31:08.250Z,77.30
2019-03-24T02:32:08.363Z,76.82
2019-03-24T02:33:08.492Z,76.82
2019-03-24T02:34:08.625Z,76.63
2019-03-24T02:35:08.752Z,76.92
2019-03-24T02:36:08.877Z,76.25
2019-03-24T02:37:09.002Z,76.25
2019-03-24T02:38:09.133Z,76.25
2019-03-24T02:39:09.338Z,76.35
2019-03-24T02:40:09.394Z,76.35
2019-03-24T02:41:09.506Z,76.35
2019-03-24T02:42:09.641Z,76.35
2019-03-24T02:43:09.784Z,76.63
2019-03-24T02:44:09.903Z,77.20
2019-03-24T02:45:10.022Z,77.11
2019-03-24T02:46:23.137Z,77.01
2019-03-24T02:47:10.277Z,76.82
2019-03-24T02:48:10.410Z,77.77
2019-03-24T02:49:10.570Z,77.97
2019-03-24T02:50:10.690Z,77.39
2019-03-24T02:51:10.821Z,77.49
2019-03-24T02:52:10.953Z,77.87
2019-03-24T02:53:11.107Z,77.77
2019-03-24T02:54:11.224Z,77.49
2019-03-24T02:55:11.347Z,77.30
2019-03-24T02:56:11.483Z,77.58
2019-03-24T02:57:11.651Z,77.97
2019-03-24T02:58:11.739Z,78.16
2019-03-24T02:59:11.868Z,78.57
2019-03-24T03:00:12.000Z,78.25
2019-03-24T03:01:12.143Z,78.06
2019-03-24T03:02:12.260Z,78.57
2019-03-24T03:03:12.388Z,78.48
2019-03-24T03:04:12.515Z,79.01
2019-03-24T03:05:12.627Z,78.77
2019-03-24T03:06:12.752Z,78.82
2019-03-24T03:07:12.892Z,78.77
2019-03-24T03:08:13.015Z,78.67
2019-03-24T03:09:13.158Z,78.86
2019-03-24T03:10:13.285Z,78.67
2019-03-24T03:11:13.418Z,79.05
2019-03-24T03:12:13.550Z,79.05
2019-03-24T03:13:13.700Z,78.86
2019-03-24T03:14:13.820Z,78.96
2019-03-24T03:15:13.947Z,78.77
2019-03-24T03:16:14.094Z,78.77
2019-03-24T03:17:14.219Z,78.77
2019-03-24T03:18:14.350Z,78.96
2019-03-24T03:19:14.480Z,78.67
2019-03-24T03:20:14.598Z,78.77
2019-03-24T03:21:14.731Z,78.77
2019-03-24T03:22:14.854Z,78.86
2019-03-24T03:23:14.972Z,78.86
2019-03-24T03:24:15.118Z,78.77
2019-03-24T03:25:15.233Z,78.67
2019-03-24T03:26:15.371Z,78.57
2019-03-24T03:27:15.487Z,78.77
2019-03-24T03:28:15.660Z,78.86
2019-03-24T03:29:15.776Z,78.57
2019-03-24T03:30:15.900Z,79.52
2019-03-24T03:31:16.020Z,79.33
2019-03-24T03:32:16.177Z,79.52
2019-03-24T03:33:16.378Z,80.19
2019-03-24T03:34:16.413Z,80.29
2019-03-24T03:35:16.545Z,80.00
2019-03-24T03:36:16.661Z,79.81
2019-03-24T03:37:16.785Z,80.00
2019-03-24T03:38:16.921Z,80.00
2019-03-24T03:39:17.076Z,80.00
2019-03-24T03:40:17.214Z,80.19
2019-03-24T03:41:17.325Z,80.10
2019-03-24T03:42:17.443Z,80.00
2019-03-24T03:43:17.565Z,79.81
2019-03-24T03:44:17.699Z,80.00
2019-03-24T03:45:17.823Z,80.10
2019-03-24T03:46:18.065Z,80.76
2019-03-24T03:47:18.115Z,80.29
2019-03-24T03:48:18.245Z,80.57
2019-03-24T03:49:18.368Z,80.57
2019-03-24T03:50:18.511Z,80.95
2019-03-24T03:51:18.643Z,80.29
2019-03-24T03:52:18.759Z,80.66
2019-03-24T03:53:18.892Z,80.57
2019-03-24T03:54:19.016Z,80.47
2019-03-24T03:55:19.135Z,80.76
2019-03-24T03:56:19.279Z,80.76
2019-03-24T03:57:19.396Z,80.71
2019-03-24T03:58:19.555Z,81.14
2019-03-24T03:59:19.699Z,81.05
2019-03-24T04:00:19.795Z,80.76
2019-03-24T04:01:19.927Z,80.80
2019-03-24T04:02:20.074Z,80.86
2019-03-24T04:03:20.182Z,80.90
2019-03-24T04:04:20.309Z,80.80
2019-03-24T04:05:20.440Z,80.80
2019-03-24T04:06:20.641Z,80.90
2019-03-24T04:07:20.742Z,80.71
2019-03-24T04:08:20.865Z,80.71
2019-03-24T04:09:20.996Z,80.71
2019-03-24T04:10:21.126Z,80.99
2019-03-24T04:11:21.251Z,80.71
2019-03-24T04:12:21.379Z,80.42
2019-03-24T04:13:21.513Z,80.52
2019-03-24T04:14:21.698Z,80.90
2019-03-24T04:15:21.797Z,80.52
2019-03-24T04:16:21.918Z,81.09
2019-03-24T04:17:22.046Z,81.18
2019-03-24T04:18:22.186Z,80.90
2019-03-24T04:19:22.313Z,81.18
2019-03-24T04:20:22.458Z,80.99
2019-03-24T04:21:22.600Z,80.99
2019-03-24T04:22:22.709Z,80.99
2019-03-24T04:23:22.826Z,80.90
2019-03-24T04:24:22.968Z,80.99
2019-03-24T04:25:23.108Z,80.90
2019-03-24T04:26:23.245Z,80.99
2019-03-24T04:27:23.369Z,81.47
2019-03-24T04:28:23.487Z,81.33
2019-03-24T04:29:23.628Z,81.66
2019-03-24T04:30:23.750Z,81.28
2019-03-24T04:31:23.877Z,81.47
2019-03-24T04:32:24.005Z,81.47
2019-03-24T04:33:24.156Z,81.43
2019-03-24T04:34:24.274Z,81.81
2019-03-24T04:35:24.402Z,82.14
2019-03-24T04:36:24.546Z,82.48
2019-03-24T04:37:24.672Z,82.09
2019-03-24T04:38:24.804Z,82.57
2019-03-24T04:39:24.933Z,82.67
2019-03-24T04:40:25.096Z,82.57
2019-03-24T04:41:25.193Z,83.14
2019-03-24T04:42:25.323Z,82.67
2019-03-24T04:43:25.447Z,82.95
2019-03-24T04:44:25.604Z,82.76
2019-03-24T04:45:25.720Z,82.95
2019-03-24T04:46:25.845Z,82.76
2019-03-24T04:47:26.046Z,82.38
2019-03-24T04:48:26.122Z,82.00
2019-03-24T04:49:26.256Z,82.00
2019-03-24T04:50:26.378Z,82.09
2019-03-24T04:51:26.505Z,81.95
2019-03-24T04:52:26.631Z,82.51
2019-03-24T04:53:26.759Z,82.42
2019-03-24T04:54:26.921Z,82.14
2019-03-24T04:55:27.026Z,82.14
2019-03-24T04:56:27.149Z,82.51
2019-03-24T04:57:27.289Z,82.23
2019-03-24T04:58:27.414Z,82.14
2019-03-24T04:59:27.546Z,82.14
2019-03-24T05:00:27.672Z,82.14
2019-03-24T05:01:27.815Z,82.14
2019-03-24T05:02:27.971Z,82.14
2019-03-24T05:03:28.077Z,82.23
2019-03-24T05:04:28.225Z,82.32
2019-03-24T05:05:28.336Z,82.42
2019-03-24T05:06:28.533Z,82.51
2019-03-24T05:07:28.608Z,82.42
2019-03-24T05:08:28.736Z,82.32
2019-03-24T05:09:28.879Z,82.42
2019-03-24T05:10:29.026Z,83.09
2019-03-24T05:11:29.148Z,82.61
2019-03-24T05:12:29.277Z,83.33
2019-03-24T05:13:29.449Z,83.33
2019-03-24T05:14:29.567Z,83.81
2019-03-24T05:15:29.688Z,84.09
2019-03-24T05:16:29.820Z,84.19
2019-03-24T05:17:29.944Z,84.76
2019-03-24T05:18:30.062Z,84.47
2019-03-24T05:19:30.199Z,85.33
2019-03-24T05:20:30.341Z,85.24
2019-03-24T05:21:30.501Z,85.42
2019-03-24T05:22:30.613Z,85.42
2019-03-24T05:23:30.748Z,85.80
2019-03-24T05:24:30.876Z,85.14
2019-03-24T05:25:30.991Z,85.42
2019-03-24T05:26:31.118Z,85.42
2019-03-24T05:27:31.252Z,85.47
2019-03-24T05:28:31.379Z,85.24
2019-03-24T05:29:31.527Z,85.24
2019-03-24T05:30:31.659Z,85.66
2019-03-24T05:31:31.783Z,85.52
2019-03-24T05:32:31.909Z,85.28
2019-03-24T05:33:32.054Z,85.80
2019-03-24T05:34:32.175Z,85.52
2019-03-24T05:35:32.312Z,85.90
2019-03-24T05:36:32.436Z,86.47
2019-03-24T05:37:32.589Z,86.70
2019-03-24T05:38:32.722Z,86.13
2019-03-24T05:39:32.834Z,86.76
2019-03-24T05:40:32.972Z,86.57
2019-03-24T05:41:33.099Z,86.47
2019-03-24T05:42:33.236Z,87.32
2019-03-24T05:43:33.358Z,86.94
2019-03-24T05:44:33.494Z,87.13
2019-03-24T05:45:33.625Z,87.13
2019-03-24T05:46:33.755Z,87.52
2019-03-24T05:47:37.320Z,87.61
2019-03-24T05:48:34.034Z,87.90
2019-03-24T05:49:34.155Z,87.61
2019-03-24T05:50:34.298Z,88.18
2019-03-24T05:51:34.411Z,87.99
2019-03-24T05:52:34.548Z,88.09
2019-03-24T05:53:34.665Z,87.80
2019-03-24T05:54:34.799Z,87.80
2019-03-24T05:55:34.941Z,87.90
2019-03-24T05:56:35.079Z,88.18
2019-03-24T05:57:35.201Z,87.90
2019-03-24T05:58:35.326Z,88.18
2019-03-24T05:59:35.494Z,88.18
2019-03-24T06:00:35.609Z,88.28
2019-03-24T06:01:35.736Z,88.28
2019-03-24T06:02:35.856Z,88.94
2019-03-24T06:03:36.027Z,88.94
2019-03-24T06:04:36.142Z,89.32
2019-03-24T06:05:36.265Z,89.42
2019-03-24T06:06:36.393Z,88.99
2019-03-24T06:07:36.541Z,88.75
2019-03-24T06:08:36.655Z,88.99
2019-03-24T06:09:36.791Z,89.14
2019-03-24T06:10:36.926Z,89.14
2019-03-24T06:11:37.100Z,88.85
2019-03-24T06:12:37.201Z,88.99
2019-03-24T06:13:37.326Z,88.46
2019-03-24T06:14:37.457Z,89.23
2019-03-24T06:15:37.609Z,89.51
2019-03-24T06:16:38.036Z,89.32
2019-03-24T06:17:47.504Z,89.70
2019-03-24T06:18:38.012Z,90.18
2019-03-24T06:19:38.130Z,90.08
2019-03-24T06:20:38.259Z,90.66
2019-03-24T06:21:38.381Z,90.84
2019-03-24T06:22:38.512Z,90.66
2019-03-24T06:23:38.637Z,91.03
2019-03-24T06:24:38.752Z,91.22
2019-03-24T06:25:38.888Z,91.22
2019-03-24T06:26:39.006Z,91.03
2019-03-24T06:27:39.162Z,91.61
2019-03-24T06:28:39.291Z,91.61
2019-03-24T06:29:39.424Z,91.80
2019-03-24T06:30:39.556Z,91.89
2019-03-24T06:31:39.701Z,91.89
2019-03-24T06:32:39.822Z,91.89
2019-03-24T06:33:39.951Z,91.51
2019-03-24T06:34:40.081Z,91.42
2019-03-24T06:35:40.225Z,91.22
2019-03-24T06:36:40.349Z,91.03
2019-03-24T06:37:40.479Z,91.42
2019-03-24T06:38:40.606Z,91.32
2019-03-24T06:39:40.746Z,91.61
2019-03-24T06:40:40.869Z,91.89
2019-03-24T06:41:41.010Z,91.61
2019-03-24T06:42:41.131Z,91.89
2019-03-24T06:43:41.254Z,92.36
2019-03-24T06:44:41.383Z,92.36
2019-03-24T06:45:41.513Z,92.84
2019-03-24T06:46:41.660Z,92.75
2019-03-24T06:47:41.786Z,92.94
2019-03-24T06:48:41.924Z,92.79
2019-03-24T06:49:42.045Z,92.65
2019-03-24T06:50:42.192Z,93.04
2019-03-24T06:51:42.325Z,92.94
2019-03-24T06:52:42.453Z,93.23
2019-03-24T06:53:42.577Z,93.70
2019-03-24T06:54:42.754Z,93.98
2019-03-24T06:55:42.851Z,93.94
2019-03-24T06:56:42.979Z,94.13
2019-03-24T06:57:43.107Z,93.27
2019-03-24T06:58:43.322Z,93.46
2019-03-24T06:59:43.405Z,93.65
2019-03-24T07:00:43.522Z,93.74
2019-03-24T07:01:43.655Z,93.37
2019-03-24T07:02:43.801Z,93.74
2019-03-24T07:03:43.919Z,92.99
2019-03-24T07:04:44.042Z,93.18
2019-03-24T07:05:44.173Z,93.55
2019-03-24T07:06:44.359Z,93.55
2019-03-24T07:07:44.465Z,93.27
2019-03-24T07:08:44.585Z,93.46
2019-03-24T07:09:44.710Z,93.27
2019-03-24T07:10:44.908Z,92.99
2019-03-24T07:11:44.974Z,93.08
2019-03-24T07:12:45.104Z,93.13
2019-03-24T07:13:45.229Z,93.03
2019-03-24T07:14:45.374Z,92.55
2019-03-24T07:15:45.495Z,92.27
2019-03-24T07:16:45.627Z,92.46
2019-03-24T07:17:45.748Z,92.46
2019-03-24T07:18:45.892Z,92.55
2019-03-24T07:19:45.994Z,91.79
2019-03-24T07:20:46.121Z,91.89
2019-03-24T07:21:46.265Z,91.89
2019-03-24T07:22:46.413Z,91.36
2019-03-24T07:23:46.535Z,90.56
2019-03-24T07:24:46.663Z,89.89
2019-03-24T07:25:46.791Z,89.36
2019-03-24T07:26:46.984Z,88.56
2019-03-24T07:27:47.062Z,88.27
2019-03-24T07:28:47.184Z,88.18
2019-03-24T07:29:47.309Z,86.94
2019-03-24T07:30:47.448Z,86.36
2019-03-24T07:31:47.589Z,86.75
2019-03-24T07:32:47.706Z,86.41
2019-03-24T07:33:47.821Z,86.41
2019-03-24T07:34:47.969Z,86.22
2019-03-24T07:35:48.106Z,85.36
2019-03-24T07:36:48.221Z,85.27
2019-03-24T07:37:48.362Z,85.46
2019-03-24T07:38:48.513Z,85.17
2019-03-24T07:39:48.640Z,85.46
2019-03-24T07:40:48.769Z,85.08
2019-03-24T07:41:48.920Z,85.08
2019-03-24T07:42:49.051Z,84.41
2019-03-24T07:43:49.156Z,84.88
2019-03-24T07:44:49.286Z,84.22
2019-03-24T07:45:49.418Z,84.50
2019-03-24T07:46:49.553Z,84.41
2019-03-24T07:47:49.685Z,84.60
2019-03-24T07:48:49.823Z,85.41
2019-03-24T07:49:49.945Z,85.50
2019-03-24T07:50:50.088Z,85.41
2019-03-24T07:51:50.211Z,85.50
2019-03-24T07:52:50.340Z,85.12
2019-03-24T07:53:50.473Z,85.21
2019-03-24T07:54:50.618Z,84.92
2019-03-24T07:55:50.739Z,84.74
2019-03-24T07:56:50.864Z,84.36
2019-03-24T07:57:50.998Z,84.55
2019-03-24T07:58:51.148Z,84.07
2019-03-24T07:59:51.274Z,83.12
2019-03-24T08:00:51.402Z,83.40
2019-03-24T08:01:51.528Z,83.21
2019-03-24T08:02:51.668Z,83.12
2019-03-24T08:03:51.812Z,82.73
2019-03-24T08:04:51.932Z,83.02
2019-03-24T08:05:52.085Z,82.64
2019-03-24T08:06:52.210Z,82.45
2019-03-24T08:07:52.333Z,82.35
2019-03-24T08:08:52.458Z,83.40
2019-03-24T08:09:52.607Z,82.73
2019-03-24T08:10:52.743Z,83.35
2019-03-24T08:11:52.861Z,82.30
2019-03-24T08:12:53.035Z,83.16
2019-03-24T08:13:54.215Z,83.06
2019-03-24T08:14:53.281Z,81.82
2019-03-24T08:15:53.407Z,81.54
2019-03-24T08:16:53.534Z,81.54
2019-03-24T08:17:53.693Z,80.87
2019-03-24T08:18:53.823Z,80.96
2019-03-24T08:19:53.941Z,80.68
2019-03-24T08:20:54.078Z,80.77
2019-03-24T08:21:54.243Z,80.20
2019-03-24T08:22:54.368Z,80.20
2019-03-24T08:23:54.485Z,80.58
2019-03-24T08:24:54.621Z,80.20
2019-03-24T08:25:54.774Z,79.91
2019-03-24T08:26:54.903Z,80.39
2019-03-24T08:27:55.021Z,80.49
2019-03-24T08:28:55.181Z,80.11
2019-03-24T08:29:55.297Z,79.72
2019-03-24T08:30:55.425Z,79.35
2019-03-24T08:31:55.559Z,79.44
2019-03-24T08:32:55.695Z,79.06
2019-03-24T08:33:55.833Z,79.25
2019-03-24T08:34:55.958Z,79.25
2019-03-24T08:35:56.113Z,79.82
2019-03-24T08:36:56.246Z,79.91
2019-03-24T08:37:56.373Z,80.39
2019-03-24T08:38:56.508Z,80.96
2019-03-24T08:39:56.667Z,81.06
2019-03-24T08:40:56.801Z,80.87
2019-03-24T08:41:56.927Z,81.06
2019-03-24T08:42:57.069Z,81.44
2019-03-24T08:43:57.198Z,81.35
2019-03-24T08:44:57.329Z,81.06
2019-03-24T08:45:57.463Z,81.82
2019-03-24T08:46:57.597Z,81.73
2019-03-24T08:47:57.738Z,81.29
2019-03-24T08:48:57.865Z,80.87
2019-03-24T08:49:58.002Z,81.15
2019-03-24T08:50:58.131Z,80.68
2019-03-24T08:51:58.260Z,81.29
2019-03-24T08:52:58.403Z,81.25
2019-03-24T08:53:58.555Z,81.20
2019-03-24T08:54:59.836Z,80.91
2019-03-24T08:55:58.809Z,80.81
2019-03-24T08:56:58.946Z,81.01
2019-03-24T08:57:59.088Z,81.01
2019-03-24T08:58:59.209Z,80.96
2019-03-24T08:59:59.346Z,81.73
2019-03-24T09:00:59.475Z,82.06
2019-03-24T09:01:59.611Z,81.10
2019-03-24T09:02:59.748Z,80.62
2019-03-24T09:03:59.871Z,80.81
2019-03-24T09:04:59.998Z,80.91
2019-03-24T09:06:00.144Z,80.33
2019-03-24T09:07:00.269Z,80.33
2019-03-24T09:08:00.414Z,80.91
2019-03-24T09:09:00.544Z,81.10
2019-03-24T09:10:00.670Z,81.20
2019-03-24T09:11:00.803Z,81.10
2019-03-24T09:12:00.933Z,80.53
2019-03-24T09:13:01.075Z,81.10
2019-03-24T09:14:01.202Z,80.24
2019-03-24T09:15:01.324Z,80.24
2019-03-24T09:16:01.452Z,79.96
2019-03-24T09:17:01.603Z,79.71
2019-03-24T09:18:01.737Z,78.91
2019-03-24T09:19:01.866Z,78.94
2019-03-24T09:20:02.006Z,78.66
2019-03-24T09:21:02.162Z,78.09
2019-03-24T09:22:02.289Z,77.89
2019-03-24T09:23:02.427Z,77.99
2019-03-24T09:24:02.559Z,78.47
2019-03-24T09:25:02.707Z,78.28
2019-03-24T09:26:02.839Z,77.99
2019-03-24T09:27:02.960Z,78.28
2019-03-24T09:28:03.119Z,78.28
2019-03-24T09:29:03.232Z,78.66
2019-03-24T09:30:03.359Z,78.28
2019-03-24T09:31:03.496Z,77.32
2019-03-24T09:32:03.634Z,77.13
2019-03-24T09:33:03.770Z,77.13
2019-03-24T09:34:03.892Z,77.23
2019-03-24T09:35:04.043Z,77.89
2019-03-24T09:36:04.173Z,78.28
2019-03-24T09:37:04.311Z,78.28
2019-03-24T09:38:04.450Z,78.18
2019-03-24T09:39:04.553Z,78.18
2019-03-24T09:40:04.679Z,78.09
2019-03-24T09:41:04.812Z,78.28
2019-03-24T09:42:04.962Z,77.89
2019-03-24T09:43:05.090Z,78.09
2019-03-24T09:44:05.221Z,78.51
2019-03-24T09:45:05.356Z,77.84
2019-03-24T09:46:05.510Z,76.98
2019-03-24T09:47:05.635Z,76.12
2019-03-24T09:48:05.763Z,75.83
2019-03-24T09:49:05.891Z,75.45
2019-03-24T09:50:06.039Z,75.93
2019-03-24T09:51:06.153Z,75.30
2019-03-24T09:52:06.281Z,75.26
2019-03-24T09:53:06.418Z,75.10
2019-03-24T09:54:06.582Z,75.49
2019-03-24T09:55:06.712Z,75.78
2019-03-24T09:56:06.843Z,75.68
2019-03-24T09:57:06.970Z,75.59
2019-03-24T09:58:07.131Z,74.63
2019-03-24T09:59:07.270Z,74.15
2019-03-24T10:00:07.386Z,73.48
2019-03-24T10:01:07.538Z,72.85
2019-03-24T10:02:07.668Z,73.04
2019-03-24T10:03:07.793Z,73.04
2019-03-24T10:04:07.918Z,72.75
2019-03-24T10:05:08.083Z,72.75
2019-03-24T10:06:08.204Z,72.75
2019-03-24T10:07:08.332Z,72.37
2019-03-24T10:08:08.478Z,72.37
2019-03-24T10:09:08.613Z,71.32
2019-03-24T10:10:08.745Z,71.93
2019-03-24T10:11:08.873Z,71.32
2019-03-24T10:12:08.994Z,71.13
2019-03-24T10:13:09.156Z,69.73
2019-03-24T10:14:09.280Z,69.82
2019-03-24T10:15:09.425Z,70.68
2019-03-24T10:16:09.556Z,70.40
2019-03-24T10:17:09.687Z,70.78
2019-03-24T10:18:09.823Z,70.50
2019-03-24T10:19:14.204Z,71.16
2019-03-24T10:20:10.095Z,71.16
2019-03-24T10:21:10.227Z,71.16
2019-03-24T10:22:10.360Z,70.01
2019-03-24T10:23:10.487Z,70.01
2019-03-24T10:24:10.614Z,69.29
2019-03-24T10:25:10.752Z,69.48
2019-03-24T10:26:10.880Z,69.48
2019-03-24T10:27:11.016Z,68.62
2019-03-24T10:28:11.147Z,68.13
2019-03-24T10:29:11.288Z,67.08
2019-03-24T10:30:11.425Z,67.08
2019-03-24T10:31:11.561Z,66.99
2019-03-24T10:32:11.700Z,67.56
2019-03-24T10:33:11.820Z,67.47
2019-03-24T10:34:11.961Z,67.27
2019-03-24T10:35:12.092Z,68.33
2019-03-24T10:36:12.235Z,67.85
2019-03-24T10:37:12.378Z,68.52
2019-03-24T10:38:12.494Z,68.04
2019-03-24T10:39:12.624Z,67.18
2019-03-24T10:40:12.762Z,67.47
2019-03-24T10:41:12.901Z,67.47
2019-03-24T10:42:13.039Z,67.66
2019-03-24T10:43:13.169Z,68.42
2019-03-24T10:44:13.309Z,68.46
2019-03-24T10:45:13.466Z,67.98
2019-03-24T10:46:13.582Z,67.88
2019-03-24T10:47:13.740Z,69.42
2019-03-24T10:48:13.898Z,68.49
2019-03-24T10:49:24.133Z,66.86
2019-03-24T10:50:14.521Z,65.65
2019-03-24T10:51:14.315Z,64.79
2019-03-24T10:52:14.473Z,64.79
2019-03-24T10:53:14.606Z,63.48
2019-03-24T10:54:14.742Z,62.62
2019-03-24T10:55:14.885Z,61.75
2019-03-24T10:56:15.016Z,61.75
2019-03-24T10:57:15.167Z,62.62
2019-03-24T10:58:15.301Z,62.62
2019-03-24T10:59:15.434Z,62.23
2019-03-24T11:00:15.567Z,61.46
2019-03-24T11:01:15.703Z,62.07
2019-03-24T11:02:15.890Z,62.07
2019-03-24T11:03:16.003Z,62.84
2019-03-24T11:04:16.138Z,62.07
2019-03-24T11:05:16.278Z,60.28
2019-03-24T11:06:16.419Z,58.94
2019-03-24T11:07:16.565Z,59.29
2019-03-24T11:08:16.691Z,59.29
2019-03-24T11:09:16.849Z,59.64
2019-03-24T11:10:16.985Z,61.24
2019-03-24T11:11:17.113Z,61.34
2019-03-24T11:12:17.256Z,61.63
2019-03-24T11:13:17.402Z,61.72
2019-03-24T11:14:17.523Z,62.07
2019-03-24T11:15:17.652Z,62.74
2019-03-24T11:16:17.799Z,64.43
2019-03-24T11:17:17.943Z,63.76
2019-03-24T11:18:18.084Z,63.48
2019-03-24T11:19:18.215Z,64.34
2019-03-24T11:20:18.364Z,63.93
2019-03-24T11:21:18.479Z,64.12
2019-03-24T11:22:18.615Z,64.50
2019-03-24T11:23:18.747Z,65.08
2019-03-24T11:24:18.886Z,64.69
2019-03-24T11:25:19.023Z,65.36
2019-03-24T11:26:19.170Z,65.90
2019-03-24T11:27:19.296Z,66.09
2019-03-24T11:28:19.436Z,66.86
2019-03-24T11:29:19.577Z,66.09
2019-03-24T11:30:19.711Z,66.57
2019-03-24T11:31:19.844Z,66.00
2019-03-24T11:32:19.981Z,65.71
2019-03-24T11:33:20.143Z,65.90
2019-03-24T11:34:20.279Z,66.19
2019-03-24T11:35:20.417Z,66.28
2019-03-24T11:36:20.539Z,66.47
2019-03-24T11:37:20.687Z,67.43
2019-03-24T11:38:20.829Z,67.24
2019-03-24T11:39:20.975Z,66.57
2019-03-24T11:40:21.130Z,66.28
2019-03-24T11:41:21.261Z,66.19
2019-03-24T11:42:21.388Z,65.81
2019-03-24T11:43:21.561Z,66.57
2019-03-24T11:44:21.675Z,66.76
2019-03-24T11:45:21.790Z,66.57
2019-03-24T11:46:21.932Z,67.05
2019-03-24T11:47:26.507Z,67.21
2019-03-24T11:48:22.209Z,67.88
2019-03-24T11:49:22.353Z,68.07
2019-03-24T11:50:22.504Z,67.97
2019-03-24T11:51:22.631Z,67.40
2019-03-24T11:52:22.821Z,67.78
2019-03-24T11:53:22.921Z,68.35
2019-03-24T11:54:23.062Z,68.16
2019-03-24T11:55:23.208Z,68.55
2019-03-24T11:56:23.331Z,68.55
2019-03-24T11:57:23.474Z,68.35
2019-03-24T11:58:23.598Z,68.35
2019-03-24T11:59:23.731Z,68.74
2019-03-24T12:00:23.866Z,69.31
2019-03-24T12:01:24.034Z,69.31
2019-03-24T12:02:24.162Z,69.21
2019-03-24T12:03:25.436Z,69.41
2019-03-24T12:04:24.419Z,69.27
2019-03-24T12:05:24.542Z,69.09
2019-03-24T12:06:24.686Z,69.50
2019-03-24T12:07:24.818Z,69.21
2019-03-24T12:08:24.968Z,69.31
2019-03-24T12:09:25.098Z,69.41
2019-03-24T12:10:25.230Z,69.79
2019-03-24T12:11:25.376Z,69.66
2019-03-24T12:12:25.509Z,69.37
2019-03-24T12:13:25.626Z,68.99
2019-03-24T12:14:25.766Z,69.09
2019-03-24T12:15:25.890Z,69.18
2019-03-24T12:16:26.025Z,69.27
2019-03-24T12:17:26.156Z,69.76
2019-03-24T12:18:26.302Z,70.04
2019-03-24T12:19:26.452Z,69.95
2019-03-24T12:20:26.563Z,70.04
2019-03-24T12:21:26.726Z,69.56
2019-03-24T12:22:26.844Z,69.95
2019-03-24T12:23:26.972Z,69.47
2019-03-24T12:24:27.105Z,68.99
2019-03-24T12:25:27.237Z,69.18
2019-03-24T12:26:27.384Z,69.66
2019-03-24T12:27:27.528Z,69.47
2019-03-24T12:28:27.653Z,69.76
2019-03-24T12:29:27.790Z,70.52
2019-03-24T12:30:27.906Z,70.33
2019-03-24T12:31:28.042Z,70.14
2019-03-24T12:32:28.177Z,69.95
2019-03-24T12:33:28.309Z,70.04
2019-03-24T12:34:28.442Z,70.23
2019-03-24T12:35:28.582Z,70.71
2019-03-24T12:36:28.715Z,70.52
2019-03-24T12:37:28.844Z,70.52
2019-03-24T12:38:28.992Z,69.76
2019-03-24T12:39:29.131Z,70.04
2019-03-24T12:40:29.262Z,69.18
2019-03-24T12:41:29.396Z,68.99
2019-03-24T12:42:29.523Z,69.27
2019-03-24T12:43:29.652Z,69.09
2019-03-24T12:44:29.799Z,69.27
2019-03-24T12:45:29.919Z,69.56
2019-03-24T12:46:30.061Z,68.90
2019-03-24T12:47:30.197Z,69.27
2019-03-24T12:48:30.332Z,69.27
2019-03-24T12:49:30.463Z,69.85
2019-03-24T12:50:31.764Z,70.33
2019-03-24T12:51:30.723Z,70.04
2019-03-24T12:52:30.862Z,69.47
2019-03-24T12:53:30.993Z,70.14
2019-03-24T12:54:31.118Z,70.23